createdAt,value
2023-01-11T00:00:39.237Z,76.59
2023-01-11T00:03:06.707Z,76.78
2023-01-11T00:05:41.287Z,75.84
2023-01-11T00:08:08.701Z,75.54
2023-01-11T00:10:36.238Z,74.62
2023-01-11T00:13:03.575Z,73.69
2023-01-11T00:15:30.728Z,73.82
2023-01-11T00:17:57.896Z,74.56
2023-01-11T00:20:25.279Z,74.07
2023-01-11T00:22:52.431Z,73.55
2023-01-11T00:25:19.299Z,73.05
2023-01-11T00:27:47.564Z,72.61
2023-01-11T00:30:14.804Z,72.69
2023-01-11T00:32:41.706Z,72.37
2023-01-11T00:35:08.975Z,72.06
2023-01-11T00:37:35.781Z,72.65
2023-01-11T00:40:02.706Z,72.23
2023-01-11T00:42:48.410Z,72.73
2023-01-11T00:45:33.935Z,72.23
2023-01-11T00:48:01.174Z,71.25
2023-01-11T00:50:29.892Z,70.69
2023-01-11T00:52:57.850Z,69.86
2023-01-11T00:55:25.038Z,69.25
2023-01-11T00:57:52.363Z,68.86
2023-01-11T01:00:20.586Z,68.04
2023-01-11T01:02:47.855Z,68.00
2023-01-11T01:05:14.868Z,68.41
2023-01-11T01:07:42.909Z,68.40
2023-01-11T01:10:11.017Z,68.48
2023-01-11T01:12:56.471Z,68.63
2023-01-11T01:15:23.398Z,67.54
2023-01-11T01:17:53.068Z,66.85
2023-01-11T01:20:21.243Z,66.80
2023-01-11T01:22:48.504Z,67.22
2023-01-11T01:25:16.392Z,67.07
2023-01-11T01:27:43.363Z,67.19
2023-01-11T01:30:11.012Z,67.36
2023-01-11T01:32:37.999Z,68.19
2023-01-11T01:35:05.093Z,68.58
2023-01-11T01:37:31.932Z,68.31
2023-01-11T01:39:58.798Z,68.51
2023-01-11T01:42:25.780Z,69.09
2023-01-11T01:44:55.250Z,68.41
2023-01-11T01:47:33.936Z,68.09
2023-01-11T01:50:03.542Z,68.09
2023-01-11T01:52:31.714Z,68.49
2023-01-11T01:54:59.800Z,68.85
2023-01-11T01:57:29.208Z,68.92
2023-01-11T01:59:56.664Z,69.39
2023-01-11T02:02:24.339Z,69.43
2023-01-11T02:04:51.553Z,69.27
2023-01-11T02:07:20.996Z,69.41
2023-01-11T02:09:50.802Z,69.33
2023-01-11T02:12:18.257Z,69.41
2023-01-11T02:14:45.858Z,68.95
2023-01-11T02:17:13.341Z,68.86
2023-01-11T02:19:52.545Z,69.00
2023-01-11T02:22:38.681Z,69.13
2023-01-11T02:25:55.759Z,69.11
2023-01-11T02:28:33.097Z,68.94
2023-01-11T02:31:20.139Z,69.18
2023-01-11T02:34:16.193Z,69.41
2023-01-11T02:36:57.315Z,69.57
2023-01-11T02:39:37.964Z,69.90
2023-01-11T02:42:51.970Z,69.85
2023-01-11T02:45:36.339Z,70.07
2023-01-11T02:48:18.688Z,69.94
2023-01-11T02:51:11.247Z,69.92
2023-01-11T02:53:45.080Z,70.13
2023-01-11T02:56:33.128Z,70.55
2023-01-11T02:59:01.229Z,70.74
2023-01-11T03:01:28.204Z,70.82
2023-01-11T03:03:55.234Z,70.54
2023-01-11T03:06:32.775Z,70.66
2023-01-11T03:09:19.807Z,70.33
2023-01-11T03:12:19.761Z,70.41
2023-01-11T03:15:21.488Z,70.84
2023-01-11T03:18:12.401Z,71.31
2023-01-11T03:20:42.049Z,71.45
2023-01-11T03:23:19.743Z,71.69
2023-01-11T03:25:55.932Z,71.87
2023-01-11T03:28:30.616Z,72.26
2023-01-11T03:31:12.984Z,72.57
2023-01-11T03:33:58.990Z,72.47
2023-01-11T03:36:35.595Z,72.81
2023-01-11T03:39:10.001Z,73.68
2023-01-11T03:41:38.194Z,73.59
2023-01-11T03:44:06.529Z,73.86
2023-01-11T03:46:51.222Z,74.27
2023-01-11T03:49:20.085Z,74.15
2023-01-11T03:51:47.106Z,74.16
2023-01-11T03:54:16.175Z,74.26
2023-01-11T03:56:52.216Z,73.55
2023-01-11T03:59:18.986Z,73.63
2023-01-11T04:01:45.790Z,73.66
2023-01-11T04:04:12.839Z,73.60
2023-01-11T04:06:40.158Z,73.84
2023-01-11T04:09:07.040Z,74.05
2023-01-11T04:11:33.781Z,74.48
2023-01-11T04:14:01.615Z,75.27
2023-01-11T04:16:28.647Z,75.38
2023-01-11T04:18:55.627Z,75.85
2023-01-11T04:21:22.568Z,75.73
2023-01-11T04:23:49.525Z,75.21
2023-01-11T04:26:17.953Z,75.07
2023-01-11T04:28:45.080Z,74.42
2023-01-11T04:31:11.959Z,74.19
2023-01-11T04:33:39.126Z,74.52
2023-01-11T04:36:10.439Z,74.46
2023-01-11T04:38:37.338Z,74.01
2023-01-11T04:41:23.951Z,73.87
2023-01-11T04:43:50.894Z,74.12
2023-01-11T04:46:17.710Z,74.52
2023-01-11T04:48:44.608Z,74.65
2023-01-11T04:51:11.409Z,74.97
2023-01-11T04:53:38.222Z,75.11
2023-01-11T04:56:05.996Z,74.77
2023-01-11T04:58:36.496Z,74.74
2023-01-11T05:01:12.017Z,74.65
2023-01-11T05:03:39.001Z,74.56
2023-01-11T05:06:06.642Z,74.29
2023-01-11T05:08:33.833Z,74.27
2023-01-11T05:11:02.506Z,74.77
2023-01-11T05:13:45.284Z,74.51
2023-01-11T05:16:12.201Z,74.48
2023-01-11T05:18:42.823Z,74.47
2023-01-11T05:21:11.099Z,74.83
2023-01-11T05:23:38.083Z,74.88
2023-01-11T05:26:13.272Z,74.61
2023-01-11T05:28:40.337Z,74.72
2023-01-11T05:31:07.073Z,74.49
2023-01-11T05:33:33.996Z,74.23
2023-01-11T05:36:02.181Z,74.39
2023-01-11T05:38:29.323Z,74.42
2023-01-11T05:41:01.318Z,74.41
2023-01-11T05:43:28.732Z,74.52
2023-01-11T05:45:56.579Z,74.23
2023-01-11T05:48:23.989Z,74.19
2023-01-11T05:50:54.609Z,74.43
2023-01-11T05:53:24.510Z,74.42
2023-01-11T05:55:58.321Z,74.40
2023-01-11T05:58:26.296Z,74.09
2023-01-11T06:00:55.181Z,74.20
2023-01-11T06:03:23.266Z,74.50
2023-01-11T06:05:50.470Z,74.52
2023-01-11T06:08:17.426Z,74.50
2023-01-11T06:10:55.289Z,74.68
2023-01-11T06:13:28.787Z,74.76
2023-01-11T06:16:00.723Z,74.63
2023-01-11T06:18:34.844Z,74.78
2023-01-11T10:18:26.621Z,76.13
2023-01-11T10:21:31.746Z,75.96
2023-01-11T10:24:21.567Z,75.89
2023-01-11T10:26:49.122Z,75.68
2023-01-11T10:30:00.309Z,75.19
2023-01-11T10:33:02.881Z,75.32
2023-01-11T10:35:48.031Z,74.68
2023-01-11T10:38:54.952Z,74.68
2023-01-11T10:41:38.771Z,74.81
2023-01-11T10:44:13.747Z,74.58
2023-01-11T10:46:44.616Z,74.71
2023-01-11T10:49:39.259Z,74.58
2023-01-11T10:52:15.264Z,74.62
2023-01-11T10:54:46.922Z,74.32
2023-01-11T11:06:13.428Z,72.61
2023-01-11T11:08:50.989Z,72.81
2023-01-11T11:11:26.931Z,72.91
2023-01-11T11:14:05.432Z,72.82
2023-01-11T11:16:43.665Z,72.84
2023-01-11T11:19:12.215Z,72.99
2023-01-11T11:21:39.884Z,73.40
2023-01-11T11:24:37.220Z,72.98
2023-01-11T11:27:24.015Z,72.38
2023-01-11T11:29:52.966Z,71.91
2023-01-11T11:32:21.380Z,71.61
2023-01-11T11:34:49.180Z,71.40
2023-01-11T11:37:32.901Z,70.97
2023-01-11T11:39:59.858Z,70.77
2023-01-11T11:42:26.915Z,70.90
2023-01-11T11:45:09.285Z,70.34
2023-01-11T11:47:37.070Z,69.70
2023-01-11T11:50:42.557Z,69.50
2023-01-11T11:53:08.236Z,70.03
2023-01-11T11:55:35.097Z,70.31
2023-01-11T11:58:08.637Z,70.70
2023-01-11T12:00:45.097Z,70.45
2023-01-11T12:03:22.150Z,70.16
2023-01-11T12:05:57.805Z,70.33
2023-01-11T12:08:26.407Z,70.06
2023-01-11T12:11:03.789Z,70.26
2023-01-11T12:13:35.309Z,70.44
2023-01-11T12:16:07.503Z,70.44
2023-01-11T12:18:37.411Z,70.73
2023-01-11T12:21:18.475Z,70.55
2023-01-11T12:23:45.289Z,70.69
2023-01-11T12:26:18.214Z,70.65
2023-01-11T12:29:10.155Z,71.00
2023-01-11T12:32:19.437Z,71.05
2023-01-11T12:35:13.670Z,70.42
2023-01-11T12:38:13.982Z,70.14
2023-01-11T12:40:46.988Z,69.87
2023-01-11T12:43:29.379Z,70.20
2023-01-11T12:46:06.757Z,70.06
2023-01-11T12:49:08.060Z,69.98
2023-01-11T12:51:56.457Z,69.59
2023-01-11T12:54:38.609Z,69.63
2023-01-11T12:57:24.251Z,69.51
2023-01-11T12:59:51.011Z,69.16
2023-01-11T13:03:03.871Z,68.99
2023-01-11T13:06:04.810Z,69.66
2023-01-11T13:08:41.679Z,69.72
2023-01-11T13:11:34.455Z,69.37
2023-01-11T13:14:36.984Z,69.48
2023-01-11T13:17:28.871Z,69.75
2023-01-11T13:20:48.610Z,69.50
2023-01-11T13:23:33.121Z,69.56
2023-01-11T13:26:22.072Z,69.69
2023-01-11T13:29:01.540Z,69.71
2023-01-11T13:31:28.531Z,70.04
2023-01-11T13:34:00.584Z,70.12
2023-01-11T13:36:36.589Z,70.07
2023-01-11T13:39:10.327Z,70.23
2023-01-11T13:41:48.513Z,69.84
2023-01-11T13:44:48.267Z,70.35
2023-01-11T13:47:17.115Z,70.59
2023-01-11T13:50:05.218Z,70.73
2023-01-11T13:52:38.459Z,70.24
2023-01-11T13:55:24.859Z,70.00
2023-01-11T13:57:55.222Z,70.38
2023-01-11T14:00:44.102Z,70.09
2023-01-11T14:03:26.519Z,70.13
2023-01-11T14:06:25.121Z,69.71
2023-01-11T14:09:10.884Z,70.20
2023-01-11T14:12:00.149Z,70.46
2023-01-11T14:14:52.742Z,70.68
2023-01-11T14:17:45.799Z,70.65
2023-01-11T14:20:21.810Z,70.86
2023-01-11T14:22:56.037Z,71.00
2023-01-11T14:25:28.956Z,71.11
2023-01-11T19:54:00.115Z,81.78
2023-01-11T19:56:27.458Z,81.93
2023-01-11T19:58:54.314Z,81.88
2023-01-11T20:01:32.532Z,81.92
2023-01-11T20:04:04.193Z,81.78
2023-01-11T20:06:31.595Z,81.69
2023-01-11T20:08:58.496Z,81.61
2023-01-11T20:11:25.492Z,81.47
2023-01-11T20:13:53.113Z,81.37
2023-01-11T20:16:22.371Z,80.99
2023-01-11T20:18:53.536Z,81.22
2023-01-11T20:21:21.080Z,80.87
2023-01-11T20:23:52.050Z,80.86
2023-01-11T20:26:19.104Z,80.83
2023-01-11T20:28:51.248Z,81.45
2023-01-11T20:31:26.758Z,81.41
2023-01-11T20:33:55.107Z,81.22
2023-01-11T20:36:23.749Z,81.41
2023-01-11T20:38:50.897Z,81.16
2023-01-11T20:41:38.491Z,81.13
2023-01-11T20:44:06.087Z,81.41
2023-01-11T20:46:33.469Z,81.14
2023-01-11T20:49:00.402Z,81.30
2023-01-11T20:51:27.433Z,81.17
2023-01-11T20:53:54.125Z,81.58
2023-01-11T20:56:22.071Z,81.01
2023-01-11T20:58:50.874Z,80.69
2023-01-11T21:01:19.648Z,81.10
2023-01-11T21:03:46.613Z,80.98
2023-01-11T21:06:15.676Z,81.23
2023-01-11T21:08:42.835Z,81.08
2023-01-11T21:11:11.902Z,81.58
2023-01-11T21:13:39.160Z,81.42
2023-01-11T21:16:13.922Z,81.20
2023-01-11T21:18:43.127Z,81.62
2023-01-11T21:21:17.262Z,81.53
2023-01-11T21:23:44.476Z,81.83
2023-01-11T21:26:16.146Z,82.06
2023-01-11T21:28:42.957Z,82.41
2023-01-11T21:31:11.341Z,82.83
2023-01-11T21:33:39.326Z,82.84
2023-01-11T21:36:08.325Z,83.09
2023-01-11T21:38:35.229Z,83.40
2023-01-11T21:41:06.130Z,83.39
2023-01-11T21:43:34.346Z,83.74
2023-01-11T21:46:01.795Z,83.94
2023-01-11T21:48:28.904Z,83.93
2023-01-11T21:50:56.483Z,83.95
2023-01-11T21:53:23.271Z,84.14
2023-01-11T21:55:50.197Z,84.09
2023-01-11T21:58:17.061Z,84.34
2023-01-11T22:00:44.130Z,84.29
2023-01-11T22:03:11.319Z,83.76
2023-01-11T22:05:38.584Z,84.00
2023-01-11T22:08:06.486Z,83.79
2023-01-11T22:10:33.760Z,83.96
2023-01-11T22:13:00.851Z,83.80
